Aviation Digital Data Service (ADDS)

Output produced by METARs form (1634 UTC 24 April 2014)
found at http://aviationweather.gov/adds/metars/
 
KMIV 241121Z 2412/2512 29010KT P6SM SKC 
     FM241300 31015G25KT P6SM SKC 
     FM250000 VRB03KT P6SM SKC